createdAt,value
2023-03-02T00:00:18.154Z,16.63
2023-03-02T00:02:48.471Z,17.30
2023-03-02T00:05:17.307Z,18.17
2023-03-02T00:07:46.095Z,17.03
2023-03-02T00:10:16.278Z,18.20
2023-03-02T00:12:45.013Z,18.77
2023-03-02T00:15:13.842Z,15.83
2023-03-02T00:17:42.506Z,15.70
2023-03-02T00:20:13.151Z,13.60
2023-03-02T00:22:44.023Z,14.00
2023-03-02T00:25:16.302Z,13.87
2023-03-02T00:27:45.865Z,13.47
2023-03-02T00:30:16.857Z,13.60
2023-03-02T00:32:45.889Z,12.93
2023-03-02T00:35:14.722Z,14.13
2023-03-02T00:37:43.487Z,13.57
2023-03-02T00:40:13.136Z,14.27
2023-03-02T00:42:43.233Z,13.50
2023-03-02T00:45:12.825Z,13.47
2023-03-02T00:47:42.544Z,13.80
2023-03-02T00:50:12.448Z,13.27
2023-03-02T00:52:41.269Z,14.17
2023-03-02T00:55:10.656Z,14.00
2023-03-02T00:57:39.561Z,13.73
2023-03-02T01:00:12.690Z,13.87
2023-03-02T01:02:46.431Z,13.77
2023-03-02T01:05:19.004Z,14.17
2023-03-02T01:07:49.069Z,14.73
2023-03-02T01:10:17.966Z,14.20
2023-03-02T01:12:46.760Z,13.73
2023-03-02T01:15:16.972Z,13.20
2023-03-02T01:17:46.784Z,13.20
2023-03-02T01:20:16.120Z,14.43
2023-03-02T01:22:45.434Z,13.97
2023-03-02T01:25:14.875Z,14.27
2023-03-02T01:27:43.592Z,13.77
2023-03-02T01:30:14.513Z,13.33
2023-03-02T01:32:44.648Z,13.63
2023-03-02T01:35:13.836Z,14.10
2023-03-02T01:37:42.621Z,13.10
2023-03-02T01:40:14.824Z,13.27
2023-03-02T01:42:53.926Z,12.97
2023-03-02T01:45:53.420Z,14.30
2023-03-02T01:48:40.541Z,14.13
2023-03-02T01:51:15.914Z,13.57
2023-03-02T01:53:48.078Z,13.50
2023-03-02T01:56:22.798Z,12.83
2023-03-02T01:59:02.042Z,13.37
2023-03-02T02:01:33.413Z,14.00
2023-03-02T02:04:04.228Z,13.37
2023-03-02T02:06:39.195Z,12.37
2023-03-02T02:09:14.344Z,12.83
2023-03-02T02:11:45.513Z,12.50
2023-03-02T02:14:14.497Z,13.63
2023-03-02T02:16:43.424Z,13.40
2023-03-02T02:19:35.231Z,13.53
2023-03-02T02:22:04.303Z,12.90
2023-03-02T02:24:43.759Z,12.77
2023-03-02T02:27:16.213Z,13.30
2023-03-02T02:29:50.925Z,12.17
2023-03-02T02:32:26.630Z,13.13
2023-03-02T02:35:02.676Z,12.77
2023-03-02T02:37:39.674Z,12.80
2023-03-02T02:40:19.881Z,12.97
2023-03-02T02:42:54.307Z,13.80
2023-03-02T02:45:27.102Z,12.57
2023-03-02T02:47:58.611Z,13.77
2023-03-02T02:58:33.896Z,12.80
2023-03-02T03:01:02.973Z,12.93
2023-03-02T03:03:36.592Z,13.00
2023-03-02T03:06:14.820Z,12.83
2023-03-02T03:08:58.435Z,12.57
2023-03-02T03:11:41.164Z,13.83
2023-03-02T03:14:14.344Z,12.80
2023-03-02T03:16:48.541Z,14.20
2023-03-02T03:19:23.559Z,13.93
2023-03-02T03:21:56.676Z,12.53
2023-03-02T03:24:29.942Z,13.40
2023-03-02T03:27:00.848Z,13.57
2023-03-02T03:29:32.432Z,13.07
2023-03-02T03:32:05.176Z,13.33
2023-03-02T03:34:40.874Z,12.97
2023-03-02T03:37:21.075Z,13.17
2023-03-02T03:39:50.424Z,13.27
2023-03-02T03:42:19.879Z,13.63
2023-03-02T03:44:50.496Z,14.30
2023-03-02T03:47:19.312Z,13.40
2023-03-02T03:49:48.358Z,13.37
2023-03-02T03:52:17.313Z,15.30
2023-03-02T03:54:46.126Z,14.20
2023-03-02T03:57:14.763Z,12.60
2023-03-02T03:59:43.922Z,14.23
2023-03-02T04:02:14.138Z,13.93
2023-03-02T04:04:45.429Z,12.63
2023-03-02T04:07:18.350Z,13.30
2023-03-02T04:09:48.353Z,12.67
2023-03-02T04:12:18.012Z,12.93
2023-03-02T04:14:52.454Z,13.77
2023-03-02T04:17:22.784Z,12.93
2023-03-02T04:19:52.820Z,13.17
2023-03-02T04:22:22.662Z,13.10
2023-03-02T04:24:51.856Z,12.63
2023-03-02T04:27:21.404Z,12.90
2023-03-02T04:29:53.033Z,12.93
2023-03-02T04:32:23.654Z,12.73
2023-03-02T04:34:56.741Z,12.80
2023-03-02T04:37:26.301Z,13.13
2023-03-02T04:39:55.236Z,12.77
2023-03-02T04:42:24.728Z,13.40
2023-03-02T04:44:53.527Z,12.40
2023-03-02T04:47:23.960Z,13.07
2023-03-02T04:49:54.789Z,13.40
2023-03-02T04:52:23.420Z,14.13
2023-03-02T04:54:52.060Z,12.83
2023-03-02T04:57:20.703Z,14.13
2023-03-02T04:59:49.354Z,13.27
2023-03-02T05:02:18.482Z,12.90
2023-03-02T05:04:48.879Z,15.10
2023-03-02T05:07:17.633Z,14.40
2023-03-02T05:09:46.608Z,15.13
2023-03-02T05:12:15.696Z,21.50
2023-03-02T05:14:45.878Z,16.93
2023-03-02T05:17:15.071Z,35.50
2023-03-02T05:19:43.956Z,33.53
2023-03-02T05:22:14.021Z,17.47
2023-03-02T05:24:42.974Z,20.63
2023-03-02T05:27:17.578Z,25.30
2023-03-02T05:29:46.672Z,19.03
2023-03-02T05:32:17.209Z,19.37
2023-03-02T05:34:46.106Z,18.83
2023-03-02T05:37:16.659Z,17.43
2023-03-02T05:39:45.395Z,16.53
2023-03-02T05:42:14.406Z,18.50
2023-03-02T05:44:43.278Z,16.40
2023-03-02T05:47:12.724Z,16.23
2023-03-02T05:49:42.965Z,16.77
2023-03-02T05:52:11.992Z,16.50
2023-03-02T05:54:43.030Z,16.97
2023-03-02T05:57:12.530Z,16.63
2023-03-02T05:59:41.252Z,17.13
2023-03-02T06:02:10.219Z,17.10
2023-03-02T06:04:44.457Z,17.97
2023-03-02T06:07:14.268Z,16.93
2023-03-02T06:09:44.401Z,16.23
2023-03-02T06:12:13.130Z,16.17
2023-03-02T06:14:42.015Z,17.10
2023-03-02T06:17:11.017Z,16.63
2023-03-02T06:19:39.665Z,17.27
2023-03-02T06:22:08.455Z,17.50
2023-03-02T06:24:37.315Z,17.37
2023-03-02T06:27:07.509Z,16.77
2023-03-02T06:29:36.240Z,17.93
2023-03-02T06:32:05.446Z,17.63
2023-03-02T06:34:35.512Z,18.33
2023-03-02T06:37:04.367Z,18.60
2023-03-02T06:39:34.291Z,19.07
2023-03-02T06:42:03.265Z,18.20
2023-03-02T06:44:33.588Z,17.47
2023-03-02T06:47:02.233Z,17.33
2023-03-02T06:49:30.927Z,18.27
2023-03-02T06:51:59.641Z,18.13
2023-03-02T06:54:28.386Z,17.50
2023-03-02T06:56:57.909Z,33.00
2023-03-02T06:59:26.857Z,38.53
2023-03-02T07:01:56.929Z,23.33
2023-03-02T07:04:25.723Z,24.20
2023-03-02T07:06:54.386Z,21.27
2023-03-02T07:09:23.390Z,28.80
2023-03-02T07:11:52.134Z,34.10
2023-03-02T07:14:20.788Z,44.43
2023-03-02T07:16:49.493Z,34.97
2023-03-02T07:19:19.715Z,44.20
2023-03-02T07:21:48.576Z,48.53
2023-03-02T07:24:17.285Z,38.70
2023-03-02T07:26:46.059Z,37.57
2023-03-02T07:29:14.774Z,33.57
2023-03-02T07:31:44.404Z,31.70
2023-03-02T07:34:13.127Z,27.73
2023-03-02T07:36:43.557Z,23.60
2023-03-02T07:39:12.493Z,21.47
2023-03-02T07:41:41.121Z,20.77
2023-03-02T07:44:09.786Z,21.80
2023-03-02T07:46:38.536Z,21.40
2023-03-02T07:49:07.250Z,21.20
2023-03-02T07:51:35.906Z,23.13
2023-03-02T07:54:06.046Z,20.77
2023-03-02T07:56:34.734Z,21.57
2023-03-02T07:59:03.677Z,21.30
2023-03-02T08:01:33.778Z,21.67
2023-03-02T08:04:02.853Z,20.77
2023-03-02T08:06:32.328Z,22.00
2023-03-02T08:09:03.764Z,23.30
2023-03-02T08:11:34.183Z,21.77
2023-03-02T08:14:04.070Z,21.13
2023-03-02T08:16:33.107Z,21.70
2023-03-02T08:19:01.796Z,21.47
2023-03-02T08:21:31.058Z,22.03
2023-03-02T08:23:59.857Z,24.13
2023-03-02T08:26:28.727Z,20.93
2023-03-02T08:28:59.544Z,20.43
2023-03-02T08:31:28.720Z,21.07
2023-03-02T08:33:59.480Z,21.53
2023-03-02T08:36:28.435Z,21.13
2023-03-02T08:38:57.065Z,20.40
2023-03-02T08:41:26.208Z,20.67
2023-03-02T08:43:55.449Z,21.60
2023-03-02T08:46:25.741Z,20.83
2023-03-02T08:48:54.461Z,22.23
2023-03-02T08:51:26.851Z,23.33
2023-03-02T08:53:57.094Z,22.37
2023-03-02T08:56:31.385Z,21.40
2023-03-02T08:59:03.076Z,22.37
2023-03-02T09:01:36.050Z,21.13
2023-03-02T09:04:08.329Z,20.23
2023-03-02T09:06:40.114Z,22.47
2023-03-02T09:09:11.324Z,23.47
2023-03-02T09:11:42.303Z,22.20
2023-03-02T09:14:12.172Z,22.10
2023-03-02T09:16:42.517Z,22.50
2023-03-02T09:19:13.268Z,22.30
2023-03-02T09:21:42.077Z,22.17
2023-03-02T09:24:11.192Z,21.67
2023-03-02T09:26:40.327Z,21.47
2023-03-02T09:29:09.526Z,23.40
2023-03-02T09:31:39.220Z,22.27
2023-03-02T09:34:09.625Z,21.63
2023-03-02T09:36:39.114Z,21.77
2023-03-02T09:39:12.449Z,22.73
2023-03-02T09:42:25.427Z,21.47
2023-03-02T09:45:26.039Z,20.57
2023-03-02T09:48:12.378Z,23.83
2023-03-02T09:50:57.564Z,20.50
2023-03-02T09:53:42.522Z,21.40
2023-03-02T09:56:18.782Z,21.37
2023-03-02T09:58:57.631Z,22.57
2023-03-02T10:01:40.583Z,21.23
2023-03-02T10:04:23.767Z,19.97
2023-03-02T10:07:11.859Z,20.13
2023-03-02T10:09:41.369Z,21.03
2023-03-02T10:12:38.148Z,19.97
2023-03-02T10:15:15.850Z,19.17
2023-03-02T10:18:00.902Z,17.53
2023-03-02T10:20:38.491Z,16.73
2023-03-02T10:23:49.374Z,15.23
2023-03-02T10:26:29.637Z,15.03
2023-03-02T10:29:06.689Z,14.63
2023-03-02T10:31:35.539Z,14.23
2023-03-02T10:34:04.492Z,14.97
2023-03-02T10:36:40.281Z,13.77
2023-03-02T10:39:17.161Z,14.97
2023-03-02T10:41:52.759Z,14.10
2023-03-02T10:44:26.918Z,13.77
2023-03-02T10:46:56.239Z,15.10
2023-03-02T10:49:32.158Z,14.60
2023-03-02T10:52:04.310Z,14.13
2023-03-02T10:54:37.159Z,15.70
2023-03-02T10:57:29.012Z,14.13
2023-03-02T11:00:03.461Z,13.70
2023-03-02T11:02:37.669Z,14.20
2023-03-02T11:05:32.368Z,14.40
2023-03-02T11:08:03.879Z,14.30
2023-03-02T11:10:37.366Z,13.53
2023-03-02T11:13:28.188Z,13.43
2023-03-02T11:16:00.744Z,13.67
2023-03-02T11:18:35.997Z,15.20
2023-03-02T11:21:11.613Z,14.10
2023-03-02T11:23:58.964Z,13.40
2023-03-02T11:26:36.269Z,12.63
2023-03-02T11:29:14.832Z,13.73
2023-03-02T11:31:50.519Z,13.67
2023-03-02T11:34:30.598Z,13.30
2023-03-02T11:37:21.695Z,12.63
2023-03-02T11:40:06.623Z,13.33
2023-03-02T11:42:42.186Z,13.93
2023-03-02T11:45:22.885Z,12.93
2023-03-02T11:48:03.227Z,12.23
2023-03-02T11:50:38.142Z,12.80
2023-03-02T11:53:15.141Z,13.03
2023-03-02T11:55:48.679Z,13.90
2023-03-02T11:58:24.282Z,12.83
2023-03-02T12:00:56.262Z,11.53
2023-03-02T12:03:40.675Z,11.97
2023-03-02T12:06:37.665Z,11.80
2023-03-02T12:09:30.942Z,12.43
2023-03-02T12:12:22.899Z,10.67
2023-03-02T12:14:53.631Z,10.77
2023-03-02T12:17:35.146Z,10.10
2023-03-02T12:20:27.147Z,11.10
2023-03-02T12:23:08.902Z,10.40
2023-03-02T12:25:51.564Z,10.47
2023-03-02T12:28:34.006Z,8.87
2023-03-02T12:31:15.038Z,8.57
2023-03-02T12:33:48.856Z,8.40
2023-03-02T12:36:27.458Z,8.37
2023-03-02T12:39:18.322Z,8.87
2023-03-02T12:42:24.712Z,8.10
2023-03-02T12:45:05.611Z,8.60
2023-03-02T12:47:37.592Z,7.83
2023-03-02T12:50:25.063Z,8.60
2023-03-02T12:53:00.120Z,8.10
2023-03-02T12:55:30.282Z,8.43
2023-03-02T12:58:01.842Z,8.40
2023-03-02T13:00:33.718Z,8.47
2023-03-02T13:03:07.153Z,7.77
2023-03-02T13:05:37.637Z,8.90
2023-03-02T13:08:09.752Z,8.57
2023-03-02T13:10:43.790Z,8.23
2023-03-02T13:13:20.245Z,8.73
2023-03-02T13:15:52.133Z,8.30
2023-03-02T13:18:23.724Z,9.07
2023-03-02T13:20:54.169Z,8.97
2023-03-02T13:23:22.963Z,8.80
2023-03-02T13:25:55.144Z,9.33
2023-03-02T13:28:29.822Z,8.60
2023-03-02T13:31:01.876Z,9.50
2023-03-02T13:33:34.811Z,8.77
2023-03-02T13:36:04.166Z,8.40
2023-03-02T13:38:38.516Z,8.47
2023-03-02T13:41:09.410Z,8.20
2023-03-02T13:43:40.573Z,8.13
2023-03-02T13:46:36.130Z,8.10
2023-03-02T13:49:11.479Z,7.60
2023-03-02T13:51:54.515Z,8.43
2023-03-02T13:54:33.084Z,8.90
2023-03-02T13:57:10.801Z,9.20
2023-03-02T13:59:40.009Z,9.40
2023-03-02T14:02:24.753Z,8.97
2023-03-02T14:04:56.148Z,9.17
2023-03-02T14:07:26.754Z,8.13
2023-03-02T14:09:57.538Z,9.20
2023-03-02T14:12:30.456Z,9.63
2023-03-02T14:15:03.665Z,9.63
2023-03-02T14:17:32.811Z,9.23
2023-03-02T14:20:02.998Z,10.23
2023-03-02T14:22:35.684Z,10.37
2023-03-02T14:25:09.079Z,10.87
2023-03-02T14:27:40.904Z,10.47
2023-03-02T14:30:20.633Z,10.67
2023-03-02T14:32:49.739Z,12.13
2023-03-02T14:35:20.314Z,11.67
2023-03-02T14:37:52.178Z,11.93
2023-03-02T14:40:28.417Z,11.80
2023-03-02T14:42:58.671Z,11.40
2023-03-02T14:45:29.297Z,11.50
2023-03-02T14:48:00.287Z,10.90
2023-03-02T14:50:30.404Z,12.17
2023-03-02T14:53:00.220Z,12.77
2023-03-02T14:55:31.893Z,11.23
2023-03-02T14:58:04.244Z,11.83
2023-03-02T15:00:33.531Z,12.80
2023-03-02T15:03:02.362Z,13.50
2023-03-02T15:05:33.429Z,12.70
2023-03-02T15:08:02.183Z,13.07
2023-03-02T15:10:31.149Z,12.90
2023-03-02T15:12:59.948Z,12.60
2023-03-02T15:15:28.717Z,14.00
2023-03-02T15:17:57.643Z,13.63
2023-03-02T15:20:26.455Z,14.27
2023-03-02T15:22:56.738Z,13.10
2023-03-02T15:25:26.075Z,12.33
2023-03-02T15:27:57.103Z,13.40
2023-03-02T15:30:30.519Z,13.80
2023-03-02T15:33:00.236Z,13.00
2023-03-02T15:35:29.888Z,13.60
2023-03-02T15:38:02.876Z,14.17
2023-03-02T15:40:31.930Z,14.27
2023-03-02T15:43:00.671Z,15.07
2023-03-02T15:45:30.392Z,14.23
2023-03-02T15:47:59.355Z,14.73
2023-03-02T15:50:28.113Z,14.70
2023-03-02T15:52:58.429Z,14.27
2023-03-02T15:55:29.640Z,14.27
2023-03-02T15:58:00.028Z,15.50
2023-03-02T16:00:29.372Z,13.97
2023-03-02T16:02:58.099Z,14.17
2023-03-02T16:05:27.272Z,15.37
2023-03-02T16:07:56.060Z,17.70
2023-03-02T16:10:27.265Z,18.20
2023-03-02T16:12:57.489Z,17.60
2023-03-02T16:15:29.735Z,17.10
2023-03-02T16:17:58.588Z,18.47
2023-03-02T16:20:27.293Z,20.20
2023-03-02T16:22:56.632Z,18.40
2023-03-02T16:25:54.625Z,17.33
2023-03-02T16:28:24.809Z,15.73
2023-03-02T16:31:05.345Z,15.90
2023-03-02T16:33:35.122Z,14.33
2023-03-02T16:36:04.716Z,14.50
2023-03-02T16:38:36.093Z,15.60
2023-03-02T16:41:05.901Z,15.33
2023-03-02T16:43:36.099Z,16.03
2023-03-02T16:46:05.142Z,16.43
2023-03-02T16:48:33.924Z,16.53
2023-03-02T16:51:03.332Z,16.10
2023-03-02T16:53:32.103Z,16.20
2023-03-02T16:56:00.921Z,14.83
2023-03-02T16:58:29.758Z,17.00
2023-03-02T17:01:00.060Z,16.67
2023-03-02T17:03:29.028Z,14.73
2023-03-02T17:05:57.975Z,13.80
2023-03-02T17:08:26.962Z,12.50
2023-03-02T17:10:56.116Z,14.10
2023-03-02T17:13:25.042Z,18.37
2023-03-02T17:15:53.961Z,33.00
2023-03-02T17:18:24.609Z,26.20
2023-03-02T17:20:53.759Z,23.37
2023-03-02T17:23:22.837Z,28.60
2023-03-02T17:25:56.141Z,24.37
2023-03-02T17:28:25.705Z,22.23
2023-03-02T17:30:54.593Z,34.40
2023-03-02T17:33:24.837Z,22.90
2023-03-02T17:35:53.605Z,18.43
2023-03-02T17:38:23.708Z,16.07
2023-03-02T17:40:52.526Z,14.60
2023-03-02T17:43:23.143Z,17.67
2023-03-02T17:45:52.472Z,19.03
2023-03-02T17:48:21.431Z,18.87
2023-03-02T17:50:52.192Z,19.10
2023-03-02T17:53:21.240Z,18.10
2023-03-02T17:55:53.228Z,17.57
2023-03-02T17:58:25.202Z,17.63
2023-03-02T18:00:54.178Z,21.47
2023-03-02T18:03:23.043Z,23.13
2023-03-02T18:05:53.903Z,21.03
2023-03-02T18:08:23.116Z,20.00
2023-03-02T18:10:52.884Z,19.03
2023-03-02T18:13:22.297Z,18.37
2023-03-02T18:15:51.412Z,19.00
2023-03-02T18:18:23.163Z,18.07
2023-03-02T18:20:55.867Z,17.83
2023-03-02T18:23:25.959Z,17.77
2023-03-02T18:25:54.946Z,16.63
2023-03-02T18:28:24.123Z,15.87
2023-03-02T18:30:53.167Z,17.00
2023-03-02T18:33:22.084Z,17.17
2023-03-02T18:35:52.417Z,16.00
2023-03-02T18:38:21.197Z,17.33
2023-03-02T18:40:49.916Z,19.03
2023-03-02T18:43:18.736Z,17.27
2023-03-02T18:45:47.702Z,17.37
2023-03-02T18:48:16.854Z,16.40
2023-03-02T18:50:46.956Z,16.67
2023-03-02T18:53:17.821Z,16.20
2023-03-02T18:55:46.809Z,15.90
2023-03-02T18:58:21.373Z,14.93
2023-03-02T19:00:50.157Z,14.03
2023-03-02T19:03:19.649Z,16.30
2023-03-02T19:05:48.521Z,13.77
2023-03-02T19:08:20.709Z,14.80
2023-03-02T19:10:50.073Z,15.43
2023-03-02T19:13:19.508Z,17.50
2023-03-02T19:15:49.156Z,17.37
2023-03-02T19:18:20.495Z,13.63
2023-03-02T19:20:51.930Z,14.53
2023-03-02T19:23:23.451Z,13.80
2023-03-02T19:25:52.834Z,14.77
2023-03-02T19:28:22.929Z,15.87
2023-03-02T19:30:54.081Z,15.67
2023-03-02T19:33:24.868Z,15.77
2023-03-02T19:35:54.248Z,15.03
2023-03-02T19:38:24.506Z,15.57
2023-03-02T19:40:53.686Z,14.93
2023-03-02T19:43:25.970Z,15.10
2023-03-02T19:45:55.226Z,16.13
2023-03-02T19:48:24.382Z,15.43
2023-03-02T19:50:53.618Z,14.87
2023-03-02T19:53:24.418Z,14.53
2023-03-02T19:55:53.150Z,14.77
2023-03-02T19:58:23.764Z,13.70
2023-03-02T20:00:52.480Z,14.77
2023-03-02T20:03:21.327Z,14.77
2023-03-02T20:05:50.042Z,14.80
2023-03-02T20:08:21.744Z,14.67
2023-03-02T20:10:52.230Z,14.67
2023-03-02T20:13:21.503Z,16.63
2023-03-02T20:15:51.556Z,15.53
2023-03-02T20:18:21.771Z,16.17
2023-03-02T20:20:50.611Z,15.30
2023-03-02T20:23:19.539Z,15.47
2023-03-02T20:25:49.669Z,15.77
2023-03-02T20:37:57.424Z,16.80
2023-03-02T20:40:28.087Z,17.07
2023-03-02T20:42:56.958Z,16.47
2023-03-02T20:45:26.715Z,17.37
2023-03-02T20:47:56.341Z,17.90
2023-03-02T20:50:33.601Z,18.00
2023-03-02T20:53:05.449Z,18.07
2023-03-02T20:55:35.548Z,17.63
2023-03-02T20:58:06.545Z,18.07
2023-03-02T21:00:38.030Z,18.97
2023-03-02T21:03:07.757Z,17.30
2023-03-02T21:05:40.177Z,18.00
2023-03-02T21:08:14.845Z,18.10
2023-03-02T21:10:45.157Z,18.30
2023-03-02T21:13:14.626Z,18.17
2023-03-02T21:15:43.432Z,18.93
2023-03-02T21:18:12.170Z,18.37
2023-03-02T21:20:41.067Z,18.63
2023-03-02T21:23:12.748Z,17.80
2023-03-02T21:25:42.442Z,18.10
2023-03-02T21:28:11.298Z,17.23
2023-03-02T21:30:40.007Z,18.00
2023-03-02T21:33:08.647Z,17.10
2023-03-02T21:35:37.451Z,18.47
2023-03-02T21:38:06.936Z,18.83
2023-03-02T21:40:43.160Z,16.43
2023-03-02T21:43:11.873Z,19.00
2023-03-02T21:45:41.319Z,16.60
2023-03-02T21:48:10.457Z,17.60
2023-03-02T21:50:41.840Z,16.87
2023-03-02T21:53:10.944Z,18.40
2023-03-02T21:55:41.083Z,16.73
2023-03-02T21:58:10.810Z,17.57
2023-03-02T22:00:42.405Z,16.67
2023-03-02T22:03:11.109Z,17.33
2023-03-02T22:05:40.782Z,18.50
2023-03-02T22:08:10.487Z,17.90
2023-03-02T22:10:44.674Z,17.30
2023-03-02T22:13:22.972Z,18.07
2023-03-02T22:16:03.124Z,18.23
2023-03-02T22:18:33.206Z,17.37
2023-03-02T22:21:03.098Z,18.07
2023-03-02T22:23:32.859Z,16.63
2023-03-02T22:26:18.774Z,17.40
2023-03-02T22:28:47.481Z,16.93
2023-03-02T22:31:21.987Z,17.27
2023-03-02T22:33:51.434Z,18.37
2023-03-02T22:36:24.254Z,17.77
2023-03-02T22:38:56.716Z,17.37
2023-03-02T22:41:26.960Z,16.83
2023-03-02T22:43:57.759Z,18.03
2023-03-02T22:46:27.623Z,17.63
2023-03-02T22:48:56.861Z,18.27
2023-03-02T22:51:30.804Z,19.30
2023-03-02T22:54:01.499Z,19.30
2023-03-02T22:56:35.598Z,18.83
2023-03-02T22:59:15.464Z,18.60
2023-03-02T23:01:46.641Z,17.90
2023-03-02T23:04:21.960Z,19.13
2023-03-02T23:06:54.631Z,17.73
2023-03-02T23:09:27.266Z,17.37
2023-03-02T23:12:01.087Z,18.53
2023-03-02T23:14:36.940Z,18.47
2023-03-02T23:17:16.957Z,18.23
2023-03-02T23:19:46.024Z,18.43
2023-03-02T23:22:15.196Z,18.67
2023-03-02T23:24:43.861Z,18.40
2023-03-02T23:27:14.086Z,18.37
2023-03-02T23:29:42.870Z,19.83
2023-03-02T23:32:11.719Z,19.17
2023-03-02T23:34:40.639Z,19.10
2023-03-02T23:37:09.363Z,19.77
2023-03-02T23:39:38.082Z,19.47
2023-03-02T23:42:07.253Z,18.47
2023-03-02T23:44:37.371Z,19.10
2023-03-02T23:47:06.300Z,18.23
2023-03-02T23:49:34.980Z,18.20
2023-03-02T23:52:03.678Z,18.77
2023-03-02T23:54:32.407Z,18.73
2023-03-02T23:57:01.138Z,19.90
2023-03-02T23:59:29.814Z,20.47
